Etchingham, United Kingdom
Current Conditions -  °F | °C
As of 8:20 AM on Friday 21 Nov 2014 (Local Time) from EGMD Reporting Station
Broken Clouds Broken Clouds  
Wind Chill: 41°   Ceiling: 600
Heat Index: 46°   Visibility: 4mi
Dew Point: 45°   Wind: 12mph
Humidity: 93%   Direction: 100°E
Pressure: 30.15"   Gusts: NA
Location:  51.01°N, 0.44°E
Report Text: EGMD 210820Z 10010KT 6000 BKN006 08/07 Q1021
Loading
Personal Weather Stations






























Interactive Weather Map New forecast layout! Learn more

10-Day Weather Forecast

Advertisements
Track Severe Weather on mobile